Time;durP1;ratioP1;P1;durP2;ratioP2;P2;SDS_P1;SDS_P2;PMS_P1;PMS_P2;Temp;Humidity;BMP_temperature;BMP_pressure;BME280_temperature;BME280_humidity;BME280_pressure;Samples;Min_cycle;Max_cycle;Signal;HPM_P1;HPM_P2
2022/12/04 00:01:05;;;;;;;125.63;44.65;;;-0.10;99.90;;;;;;5064116;28;20028;-81
2022/12/04 00:03:31;;;;;;;123.93;43.15;;;-0.10;99.90;;;;;;5060538;28;20059;-81
2022/12/04 00:06:09;;;;;;;117.95;41.35;;;-0.10;99.90;;;;;;5059593;28;20480;-81
2022/12/04 00:08:35;;;;;;;124.80;44.40;;;-0.10;99.90;;;;;;5063670;28;20050;-81
2022/12/04 00:11:03;;;;;;;119.05;43.88;;;-0.10;99.90;;;;;;5062058;28;20037;-80
2022/12/04 00:13:28;;;;;;;118.03;43.55;;;-0.10;99.90;;;;;;5055036;28;20036;-81
2022/12/04 00:15:54;;;;;;;129.98;43.85;;;-0.10;99.90;;;;;;5060020;28;20033;-79
2022/12/04 00:18:20;;;;;;;112.35;42.25;;;0.00;99.90;;;;;;5065432;28;20150;-81
2022/12/04 00:20:45;;;;;;;119.70;44.20;;;0.00;99.90;;;;;;5054372;28;20020;-79
2022/12/04 00:23:11;;;;;;;106.13;39.58;;;0.00;99.90;;;;;;5060764;28;20365;-81
2022/12/04 00:25:36;;;;;;;117.53;42.17;;;0.00;99.90;;;;;;5058484;28;20086;-81
2022/12/04 00:28:02;;;;;;;123.68;45.78;;;0.00;99.90;;;;;;5060035;28;20028;-80
2022/12/04 00:30:28;;;;;;;107.90;43.22;;;0.00;99.90;;;;;;5057873;28;20854;-81
2022/12/04 00:32:53;;;;;;;122.38;45.88;;;0.00;99.90;;;;;;5064402;28;20515;-78
2022/12/04 00:35:19;;;;;;;124.40;45.22;;;0.00;99.90;;;;;;5060108;28;20047;-77
2022/12/04 00:37:44;;;;;;;116.20;43.67;;;0.00;99.90;;;;;;5058458;28;20024;-79
2022/12/04 00:40:11;;;;;;;120.40;44.03;;;0.00;99.90;;;;;;5055395;28;20024;-77
2022/12/04 00:42:36;;;;;;;130.60;47.70;;;0.00;99.90;;;;;;5062048;28;20263;-78
2022/12/04 00:45:03;;;;;;;123.35;45.33;;;0.00;99.90;;;;;;5060712;28;20017;-79
2022/12/04 00:47:28;;;;;;;126.53;46.28;;;0.00;99.90;;;;;;5059481;28;20024;-79
2022/12/04 00:49:54;;;;;;;109.07;43.30;;;0.00;99.90;;;;;;5065277;28;20074;-79
2022/12/04 00:52:19;;;;;;;119.63;45.60;;;0.00;99.90;;;;;;5062578;28;20035;-79
2022/12/04 00:54:45;;;;;;;109.75;42.60;;;0.00;99.90;;;;;;5062650;28;20020;-78
2022/12/04 00:57:11;;;;;;;184.63;46.00;;;0.00;99.90;;;;;;5065866;28;20359;-78
2022/12/04 00:59:38;;;;;;;119.28;41.80;;;0.00;99.90;;;;;;5065067;28;20105;-78
2022/12/04 01:02:03;;;;;;;124.15;44.83;;;0.00;99.90;;;;;;5062942;28;20021;-78
2022/12/04 01:04:29;;;;;;;121.50;44.47;;;0.00;99.90;;;;;;5057854;28;20025;-79
2022/12/04 01:06:55;;;;;;;100.32;41.33;;;0.10;99.90;;;;;;5057913;28;20035;-78
2022/12/04 01:09:20;;;;;;;106.25;40.65;;;0.10;99.90;;;;;;5056147;28;20047;-79
2022/12/04 01:11:46;;;;;;;102.07;39.25;;;0.00;99.90;;;;;;5060877;28;20033;-78
2022/12/04 01:14:14;;;;;;;117.40;42.40;;;0.10;99.90;;;;;;5063950;28;20032;-77
2022/12/04 01:16:40;;;;;;;106.78;40.38;;;0.10;99.90;;;;;;5057669;28;20070;-79
2022/12/04 01:19:08;;;;;;;123.07;42.83;;;0.10;99.90;;;;;;5061420;28;20058;-78
2022/12/04 01:21:35;;;;;;;110.13;41.03;;;0.10;99.90;;;;;;5059143;28;20316;-79
2022/12/04 01:24:01;;;;;;;107.55;41.10;;;0.10;99.90;;;;;;5060384;28;20024;-79
2022/12/04 01:26:27;;;;;;;116.07;44.08;;;0.10;99.90;;;;;;5068084;28;20405;-78
2022/12/04 01:28:52;;;;;;;101.68;41.00;;;0.10;99.90;;;;;;5059971;28;20043;-79
2022/12/04 01:31:19;;;;;;;109.10;40.47;;;0.10;99.90;;;;;;5061537;28;20021;-79
2022/12/04 01:33:47;;;;;;;105.15;42.03;;;0.10;99.90;;;;;;5062357;28;20024;-78
2022/12/04 01:36:16;;;;;;;113.82;41.75;;;0.10;99.90;;;;;;5052964;28;20104;-78
2022/12/04 01:38:42;;;;;;;120.50;43.08;;;0.10;99.90;;;;;;5061148;28;20397;-78
2022/12/04 01:41:09;;;;;;;113.07;43.83;;;0.10;99.90;;;;;;5059574;28;20365;-78
2022/12/04 01:43:37;;;;;;;121.00;46.30;;;0.10;99.90;;;;;;5064725;28;20032;-78
2022/12/04 01:46:04;;;;;;;110.80;43.03;;;0.10;99.90;;;;;;5054600;28;20430;-79
2022/12/04 01:48:36;;;;;;;117.45;45.50;;;0.10;99.90;;;;;;5059490;28;20111;-79
2022/12/04 01:51:13;;;;;;;128.23;45.38;;;0.10;99.90;;;;;;5062512;28;20009;-79
2022/12/04 01:53:42;;;;;;;141.60;44.60;;;0.10;99.90;;;;;;5054667;28;20107;-79
2022/12/04 01:56:09;;;;;;;143.13;45.15;;;0.10;99.90;;;;;;5062453;28;20120;-79
2022/12/04 01:58:42;;;;;;;111.70;42.55;;;0.20;99.90;;;;;;5058724;28;20041;-80
2022/12/04 02:01:08;;;;;;;115.43;45.25;;;0.10;99.90;;;;;;5054943;28;20115;-78
2022/12/04 02:03:34;;;;;;;124.10;43.80;;;0.10;99.90;;;;;;5065252;28;20035;-80
2022/12/04 02:06:00;;;;;;;121.97;44.63;;;0.10;99.90;;;;;;5067068;28;20063;-79
2022/12/04 02:08:27;;;;;;;124.68;46.88;;;0.20;99.90;;;;;;5060137;28;20048;-79
2022/12/04 02:11:01;;;;;;;122.85;43.90;;;0.20;99.90;;;;;;5062807;28;20500;-79
2022/12/04 02:13:41;;;;;;;124.95;46.15;;;0.20;99.90;;;;;;5056366;28;20055;-79
2022/12/04 02:16:28;;;;;;;123.13;43.50;;;0.20;99.90;;;;;;5062690;28;20048;-79
2022/12/04 02:19:19;;;;;;;135.23;44.38;;;0.20;99.90;;;;;;5057400;28;20035;-79
2022/12/04 02:21:48;;;;;;;137.55;44.95;;;0.10;99.90;;;;;;5060995;28;20020;-79
2022/12/04 02:24:27;;;;;;;116.05;44.10;;;0.10;99.90;;;;;;5064529;28;20865;-80
2022/12/04 02:26:59;;;;;;;135.68;47.20;;;0.10;99.90;;;;;;5056521;28;20024;-79
2022/12/04 02:29:53;;;;;;;117.53;44.42;;;0.10;99.90;;;;;;5056883;28;20056;-79
2022/12/04 02:32:41;;;;;;;108.93;45.13;;;0.10;99.90;;;;;;5059696;28;20024;-80
2022/12/04 02:35:29;;;;;;;122.03;45.25;;;0.20;99.90;;;;;;5056489;28;20389;-80
2022/12/04 02:38:35;;;;;;;130.18;47.40;;;0.20;99.90;;;;;;5053377;28;20174;-79
2022/12/04 02:41:14;;;;;;;132.43;49.38;;;0.20;99.90;;;;;;5038586;28;20040;-80
2022/12/04 02:43:44;;;;;;;120.95;44.92;;;0.20;99.90;;;;;;5058909;28;20386;-79
2022/12/04 02:46:38;;;;;;;130.50;45.78;;;0.20;99.90;;;;;;5061607;28;20407;-79
2022/12/04 02:49:10;;;;;;;135.00;48.80;;;0.20;99.90;;;;;;5058454;28;20116;-80
2022/12/04 02:51:40;;;;;;;129.73;44.15;;;0.20;99.90;;;;;;5056535;28;20372;-80
2022/12/04 02:54:20;;;;;;;132.88;49.38;;;0.20;99.90;;;;;;5058567;28;20029;-80
2022/12/04 02:56:49;;;;;;;132.13;49.10;;;0.20;99.90;;;;;;5054355;28;20051;-80
2022/12/04 02:59:19;;;;;;;141.95;49.67;;;0.20;99.90;;;;;;5056785;28;20072;-80
2022/12/04 03:01:54;;;;;;;125.43;46.22;;;0.20;99.90;;;;;;5058399;28;20125;-80
2022/12/04 03:04:24;;;;;;;131.32;47.40;;;0.20;99.90;;;;;;5056694;28;20033;-80
2022/12/04 03:06:57;;;;;;;135.10;50.22;;;0.20;99.90;;;;;;5058062;28;20032;-80
2022/12/04 03:09:32;;;;;;;145.88;50.40;;;0.20;99.90;;;;;;5056864;28;20162;-78
2022/12/04 03:12:10;;;;;;;121.50;47.75;;;0.20;99.90;;;;;;5058261;28;20542;-79
2022/12/04 03:14:40;;;;;;;169.00;53.08;;;0.20;99.90;;;;;;5055631;28;20087;-79
2022/12/04 03:17:17;;;;;;;143.02;51.20;;;0.20;99.90;;;;;;5058185;28;20021;-80
2022/12/04 03:19:49;;;;;;;143.45;51.08;;;0.20;99.90;;;;;;5061169;28;20028;-79
2022/12/04 03:22:18;;;;;;;133.70;47.47;;;0.20;99.90;;;;;;5062157;28;20037;-79
2022/12/04 03:24:52;;;;;;;150.77;51.63;;;0.20;99.90;;;;;;5058193;28;20028;-79
2022/12/04 03:27:30;;;;;;;143.43;51.95;;;0.20;99.90;;;;;;5053600;28;20036;-79
2022/12/04 03:30:06;;;;;;;137.95;50.75;;;0.20;99.90;;;;;;5061242;28;20434;-79
2022/12/04 03:32:50;;;;;;;180.18;57.80;;;0.20;99.90;;;;;;5062414;28;20035;-80
2022/12/04 03:35:24;;;;;;;156.10;54.38;;;0.20;99.90;;;;;;5056845;28;20029;-78
2022/12/04 03:38:01;;;;;;;140.18;53.13;;;0.20;99.90;;;;;;5058857;28;20892;-79
2022/12/04 03:40:40;;;;;;;132.77;51.53;;;0.30;99.90;;;;;;5048059;28;20501;-80
2022/12/04 03:43:18;;;;;;;137.50;52.00;;;0.30;99.90;;;;;;5056694;28;20074;-80
2022/12/04 03:45:53;;;;;;;139.00;51.45;;;0.30;99.90;;;;;;5059300;28;20040;-79
2022/12/04 03:48:51;;;;;;;129.25;50.28;;;0.30;99.90;;;;;;5054132;28;20473;-80
2022/12/04 03:51:22;;;;;;;144.45;51.53;;;0.30;99.90;;;;;;5057475;28;20020;-80
2022/12/04 03:54:02;;;;;;;152.75;57.28;;;0.30;99.90;;;;;;5055293;28;20515;-79
2022/12/04 03:56:40;;;;;;;161.25;57.30;;;0.30;99.90;;;;;;5052258;28;20041;-79
2022/12/04 03:59:11;;;;;;;170.98;54.85;;;0.30;99.90;;;;;;5054103;28;20127;-79
2022/12/04 04:01:47;;;;;;;178.30;58.50;;;0.30;99.90;;;;;;5060256;28;20396;-79
2022/12/04 04:04:21;;;;;;;159.90;57.17;;;0.40;99.90;;;;;;5054440;28;20028;-78
2022/12/04 04:06:55;;;;;;;154.10;54.38;;;0.30;99.90;;;;;;5055185;28;20400;-80
2022/12/04 04:09:25;;;;;;;164.77;58.78;;;0.40;99.90;;;;;;5056095;28;20021;-79
2022/12/04 04:11:59;;;;;;;162.95;59.40;;;0.40;99.90;;;;;;5062017;28;20016;-79
2022/12/04 04:25:58;;;;;;;145.32;57.28;;;0.30;99.90;;;;;;5061786;28;20047;-79
2022/12/04 04:28:28;;;;;;;165.55;60.65;;;0.30;99.90;;;;;;5061027;28;20021;-79
2022/12/04 04:31:00;;;;;;;166.27;60.45;;;0.30;99.90;;;;;;5060591;28;20029;-78
2022/12/04 04:33:35;;;;;;;183.73;63.25;;;0.30;99.90;;;;;;5058472;28;20032;-79
2022/12/04 04:36:35;;;;;;;119.43;43.83;;;0.30;99.90;;;;;;5057363;28;20398;-79
2022/12/04 04:39:28;;;;;;;174.05;62.17;;;0.30;99.90;;;;;;5057290;28;20017;-79
2022/12/04 04:42:06;;;;;;;161.48;59.58;;;0.30;99.90;;;;;;5064675;28;20024;-78
2022/12/04 04:44:45;;;;;;;154.88;56.65;;;0.30;99.90;;;;;;5062601;28;20025;-79
2022/12/04 04:47:33;;;;;;;164.63;58.80;;;0.30;99.90;;;;;;5059243;28;20037;-79
2022/12/04 04:50:03;;;;;;;159.80;57.88;;;0.30;99.90;;;;;;5056657;28;20032;-79
2022/12/04 04:52:30;;;;;;;184.75;61.33;;;0.30;99.90;;;;;;5062667;28;20048;-79
2022/12/04 04:54:58;;;;;;;172.45;59.03;;;0.30;99.90;;;;;;5056605;28;20028;-79
2022/12/04 04:57:29;;;;;;;165.07;55.90;;;0.40;99.90;;;;;;5050863;28;20020;-79
2022/12/04 04:59:54;;;;;;;169.00;60.15;;;0.40;99.90;;;;;;5063087;28;20183;-78
2022/12/04 05:02:20;;;;;;;163.10;61.45;;;0.40;99.90;;;;;;5060304;28;20346;-79
2022/12/04 05:04:47;;;;;;;161.15;60.10;;;0.30;99.90;;;;;;5059168;28;20029;-79
2022/12/04 05:07:12;;;;;;;165.30;61.58;;;0.30;99.90;;;;;;5059155;28;20333;-80
2022/12/04 05:09:38;;;;;;;170.27;64.32;;;0.30;99.90;;;;;;5059538;28;20075;-79
2022/12/04 05:12:04;;;;;;;181.25;59.33;;;0.40;99.90;;;;;;5059104;28;20458;-79
2022/12/04 05:14:29;;;;;;;165.80;60.30;;;0.30;99.90;;;;;;5059481;28;20021;-79
2022/12/04 05:16:55;;;;;;;158.63;58.63;;;0.40;99.90;;;;;;5058323;28;20021;-79
2022/12/04 05:22:05;;;;;;;185.05;61.67;;;0.30;99.90;;;;;;5059326;28;20393;-79
2022/12/04 05:24:30;;;;;;;199.77;63.30;;;0.40;99.90;;;;;;5067704;28;20024;-79
2022/12/04 05:26:56;;;;;;;171.02;61.25;;;0.40;99.90;;;;;;5059461;28;20040;-79
2022/12/04 05:29:21;;;;;;;158.18;60.85;;;0.40;99.90;;;;;;5068826;28;20021;-79
2022/12/04 05:31:47;;;;;;;164.20;63.47;;;0.30;99.90;;;;;;5059672;28;20021;-79
2022/12/04 05:34:13;;;;;;;165.13;59.33;;;0.40;99.90;;;;;;5059839;28;20162;-80
2022/12/04 05:36:38;;;;;;;175.77;60.97;;;0.40;99.90;;;;;;5059218;28;20464;-79
2022/12/04 05:39:04;;;;;;;163.40;59.75;;;0.40;99.90;;;;;;5059936;28;20491;-79
2022/12/04 05:41:29;;;;;;;165.48;59.17;;;0.40;99.90;;;;;;5059637;28;20111;-79
2022/12/04 05:43:55;;;;;;;158.55;60.30;;;0.40;99.90;;;;;;5059715;28;20042;-79
2022/12/04 05:46:21;;;;;;;161.65;57.88;;;0.40;99.90;;;;;;5059443;28;20046;-80
2022/12/04 05:48:46;;;;;;;163.10;61.40;;;0.40;99.90;;;;;;5050087;28;20029;-79
2022/12/04 05:51:12;;;;;;;156.50;59.67;;;0.40;99.90;;;;;;5061947;28;20461;-79
2022/12/04 05:53:38;;;;;;;146.50;57.13;;;0.40;99.90;;;;;;5058810;28;20044;-79
2022/12/04 05:56:05;;;;;;;165.05;60.92;;;0.40;99.90;;;;;;5057283;28;20104;-79
2022/12/04 05:58:32;;;;;;;156.45;61.15;;;0.40;99.90;;;;;;5054841;28;20028;-79
2022/12/04 06:00:58;;;;;;;153.82;56.88;;;0.40;99.90;;;;;;5054462;28;20029;-78
2022/12/04 06:03:25;;;;;;;160.63;59.25;;;0.40;99.90;;;;;;5062097;28;20036;-78
2022/12/04 06:05:50;;;;;;;176.27;61.55;;;0.40;99.90;;;;;;5057910;28;20408;-79
2022/12/04 06:08:16;;;;;;;161.18;61.25;;;0.40;99.90;;;;;;5065140;28;20033;-79
2022/12/04 06:10:42;;;;;;;167.77;62.50;;;0.40;99.90;;;;;;5054725;28;20422;-79
2022/12/04 06:13:08;;;;;;;153.40;57.17;;;0.40;99.90;;;;;;5062882;28;20044;-79
2022/12/04 06:15:38;;;;;;;154.90;58.65;;;0.40;99.90;;;;;;5061086;28;20470;-79
2022/12/04 06:18:04;;;;;;;160.18;57.83;;;0.40;99.90;;;;;;5061193;28;20135;-79
2022/12/04 06:20:30;;;;;;;179.35;58.50;;;0.40;99.90;;;;;;5052859;28;20178;-79
2022/12/04 06:22:55;;;;;;;157.27;61.70;;;0.40;99.90;;;;;;5060667;28;20044;-80
2022/12/04 06:25:21;;;;;;;153.25;60.75;;;0.40;99.90;;;;;;5051753;28;20021;-79
2022/12/04 06:27:46;;;;;;;148.07;56.97;;;0.40;99.90;;;;;;5058387;28;20162;-79
2022/12/04 06:30:15;;;;;;;173.18;62.80;;;0.50;99.90;;;;;;5059027;28;20146;-78
2022/12/04 06:32:40;;;;;;;167.00;59.70;;;0.50;99.90;;;;;;5058857;28;20032;-79
2022/12/04 06:35:06;;;;;;;184.13;60.70;;;0.40;99.90;;;;;;5061776;28;20024;-80
2022/12/04 06:37:34;;;;;;;144.73;58.50;;;0.40;99.90;;;;;;5065339;28;20020;-80
2022/12/04 06:39:59;;;;;;;152.77;56.70;;;0.40;99.90;;;;;;5064732;28;20033;-79
2022/12/04 06:42:25;;;;;;;154.88;59.97;;;0.40;99.90;;;;;;5052589;28;20466;-80
2022/12/04 06:44:51;;;;;;;158.80;61.83;;;0.40;99.90;;;;;;5060902;28;20473;-79
2022/12/04 06:47:17;;;;;;;159.68;62.20;;;0.40;99.90;;;;;;5061446;28;20090;-80
2022/12/04 06:49:44;;;;;;;151.30;62.30;;;0.40;99.90;;;;;;5061527;28;20051;-79
2022/12/04 06:52:10;;;;;;;145.98;55.22;;;0.40;99.90;;;;;;5054963;28;20460;-79
2022/12/04 06:54:36;;;;;;;151.02;57.60;;;0.40;99.90;;;;;;5063759;28;20092;-80
2022/12/04 06:57:01;;;;;;;141.75;56.28;;;0.40;99.90;;;;;;5057878;28;20111;-80
2022/12/04 06:59:27;;;;;;;151.98;59.30;;;0.40;99.90;;;;;;5063081;28;20052;-79
2022/12/04 07:01:53;;;;;;;143.07;57.65;;;0.50;99.90;;;;;;5055473;28;20484;-79
2022/12/04 07:04:18;;;;;;;146.98;58.08;;;0.40;99.90;;;;;;5062305;28;20037;-79
2022/12/04 07:06:44;;;;;;;135.93;57.28;;;0.50;99.90;;;;;;5058674;28;20087;-79
2022/12/04 07:09:15;;;;;;;161.85;63.42;;;0.50;99.90;;;;;;5055470;28;20035;-79
2022/12/04 07:11:42;;;;;;;171.02;63.25;;;0.50;99.90;;;;;;5064467;28;20386;-80
2022/12/04 07:14:10;;;;;;;147.23;62.13;;;0.50;99.90;;;;;;5053205;28;20025;-80
2022/12/04 07:16:36;;;;;;;143.27;56.75;;;0.50;99.90;;;;;;5057191;28;20469;-79
2022/12/04 07:19:01;;;;;;;162.35;59.67;;;0.50;99.90;;;;;;5058071;28;20428;-80
2022/12/04 07:21:29;;;;;;;149.23;55.63;;;0.50;99.90;;;;;;5048993;28;20057;-79
2022/12/04 07:23:59;;;;;;;138.93;55.53;;;0.50;99.90;;;;;;5058745;28;20024;-79
2022/12/04 07:26:27;;;;;;;145.70;56.22;;;0.50;99.90;;;;;;5056861;28;20062;-79
2022/12/04 07:28:54;;;;;;;141.77;56.72;;;0.50;99.90;;;;;;5058501;28;20021;-79
2022/12/04 07:31:22;;;;;;;142.77;57.88;;;0.50;99.90;;;;;;5063994;28;20020;-80
2022/12/04 07:33:48;;;;;;;138.55;57.55;;;0.50;99.90;;;;;;5055611;28;20070;-79
2022/12/04 07:36:18;;;;;;;139.55;57.03;;;0.50;99.90;;;;;;5051720;28;20094;-80
2022/12/04 07:38:44;;;;;;;154.63;58.17;;;0.50;99.90;;;;;;5052637;28;20504;-79
2022/12/04 07:41:11;;;;;;;158.05;57.20;;;0.60;99.90;;;;;;5056477;28;20033;-80
2022/12/04 07:43:37;;;;;;;129.52;54.65;;;0.60;99.90;;;;;;5055035;28;20089;-79
2022/12/04 07:46:05;;;;;;;145.57;56.25;;;0.60;99.90;;;;;;5053729;28;20380;-79
2022/12/04 07:48:31;;;;;;;139.82;55.38;;;0.50;99.90;;;;;;5056371;28;20021;-79
2022/12/04 07:51:12;;;;;;;148.52;56.90;;;0.50;99.90;;;;;;5051531;28;20377;-80
2022/12/04 07:53:38;;;;;;;147.23;57.00;;;0.50;99.90;;;;;;5056025;28;20078;-79
2022/12/04 07:56:05;;;;;;;152.18;57.45;;;0.50;99.90;;;;;;5057802;28;20424;-80
2022/12/04 07:58:31;;;;;;;145.40;60.53;;;0.50;99.90;;;;;;5065648;28;20017;-79
2022/12/04 08:01:16;;;;;;;141.55;55.38;;;0.50;99.90;;;;;;5059997;28;20384;-80
2022/12/04 08:03:44;;;;;;;150.77;57.95;;;0.50;99.90;;;;;;5051003;28;20021;-80
2022/12/04 08:06:09;;;;;;;151.23;59.58;;;0.50;99.90;;;;;;5049223;28;20037;-79
2022/12/04 08:08:36;;;;;;;147.98;60.47;;;0.50;99.90;;;;;;5058456;28;20039;-79
2022/12/04 08:11:09;;;;;;;150.35;60.58;;;0.50;99.90;;;;;;5055758;28;20029;-80
2022/12/04 08:13:35;;;;;;;149.73;59.75;;;0.50;99.90;;;;;;5058210;28;20036;-80
2022/12/04 08:16:05;;;;;;;155.73;56.05;;;0.50;99.90;;;;;;5058875;28;20032;-80
2022/12/04 08:18:31;;;;;;;150.75;57.42;;;0.50;99.90;;;;;;5058806;28;20025;-80
2022/12/04 08:21:09;;;;;;;168.95;60.25;;;0.50;99.90;;;;;;5061288;28;20563;-80
2022/12/04 08:23:35;;;;;;;154.52;60.13;;;0.50;99.90;;;;;;5058700;28;20029;-80
2022/12/04 08:26:02;;;;;;;153.38;61.45;;;0.50;99.90;;;;;;5067049;28;20032;-79
2022/12/04 08:28:28;;;;;;;139.75;55.53;;;0.50;99.90;;;;;;5069622;28;20147;-80
2022/12/04 08:30:54;;;;;;;155.52;55.88;;;0.50;99.90;;;;;;5068965;28;20029;-80
2022/12/04 08:33:20;;;;;;;145.70;56.15;;;0.50;99.90;;;;;;5055686;28;20429;-80
2022/12/04 08:35:45;;;;;;;141.02;55.33;;;0.50;99.90;;;;;;5053382;28;20021;-80
2022/12/04 08:38:11;;;;;;;138.55;56.05;;;0.50;99.90;;;;;;5058861;28;20028;-80
2022/12/04 08:40:37;;;;;;;140.52;55.90;;;0.50;99.90;;;;;;5069035;28;20116;-80
2022/12/04 08:43:02;;;;;;;146.85;57.28;;;0.60;99.90;;;;;;5060208;28;20039;-79
2022/12/04 08:45:28;;;;;;;142.10;54.97;;;0.50;99.90;;;;;;5060858;28;20025;-80
2022/12/04 08:47:53;;;;;;;147.57;58.00;;;0.60;99.90;;;;;;5057652;28;20036;-79
2022/12/04 08:50:19;;;;;;;141.23;55.13;;;0.60;99.90;;;;;;5060965;28;20511;-80
2022/12/04 08:52:45;;;;;;;167.57;56.60;;;0.60;99.90;;;;;;5056862;28;20025;-80
2022/12/04 08:55:10;;;;;;;149.30;58.20;;;0.60;99.90;;;;;;5064665;28;20030;-80
2022/12/04 08:57:36;;;;;;;144.35;57.53;;;0.60;99.90;;;;;;5064872;28;20020;-80
2022/12/04 09:00:02;;;;;;;144.40;56.88;;;0.60;99.90;;;;;;5068140;28;20032;-80
2022/12/04 09:02:28;;;;;;;142.40;57.10;;;0.60;99.90;;;;;;5062638;28;20166;-79
2022/12/04 09:04:53;;;;;;;139.98;53.85;;;0.60;99.90;;;;;;5059570;28;20112;-80
2022/12/04 09:07:19;;;;;;;141.15;56.72;;;0.60;99.90;;;;;;5060903;28;20549;-81
2022/12/04 09:09:44;;;;;;;155.23;58.63;;;0.60;99.90;;;;;;5058124;28;20615;-80
2022/12/04 09:12:10;;;;;;;159.85;59.45;;;0.60;99.90;;;;;;5059301;28;20024;-80
2022/12/04 09:14:36;;;;;;;150.00;64.18;;;0.60;99.90;;;;;;5058601;28;20025;-80
2022/12/04 09:17:01;;;;;;;159.52;63.10;;;0.60;99.90;;;;;;5058056;28;20019;-80
2022/12/04 09:19:27;;;;;;;140.20;59.00;;;0.60;99.90;;;;;;5054922;28;20040;-80
2022/12/04 09:21:53;;;;;;;146.40;59.55;;;0.60;99.90;;;;;;5054695;28;20027;-80
2022/12/04 09:24:19;;;;;;;143.40;58.40;;;0.60;99.90;;;;;;5055456;28;20020;-80
2022/12/04 09:26:44;;;;;;;162.30;61.83;;;0.60;99.90;;;;;;5060481;28;20366;-80
2022/12/04 09:29:11;;;;;;;154.43;56.50;;;0.60;99.90;;;;;;5061613;28;20082;-81
2022/12/04 09:31:37;;;;;;;132.13;55.17;;;0.60;99.90;;;;;;5053176;28;20474;-80
2022/12/04 09:34:03;;;;;;;160.77;58.80;;;0.70;99.90;;;;;;5053738;28;20036;-80
2022/12/04 09:36:29;;;;;;;141.73;56.15;;;0.60;99.90;;;;;;5052884;28;20024;-81
2022/12/04 09:38:56;;;;;;;155.73;60.70;;;0.60;99.90;;;;;;5058468;28;20015;-80
2022/12/04 09:41:52;;;;;;;160.40;59.67;;;0.60;99.90;;;;;;5058052;28;20025;-81
2022/12/04 09:44:28;;;;;;;154.77;58.97;;;0.70;99.90;;;;;;5066124;28;20028;-81
2022/12/04 09:47:04;;;;;;;152.77;59.60;;;0.70;99.90;;;;;;5055984;28;20040;-80
2022/12/04 09:49:37;;;;;;;134.85;54.22;;;0.70;99.90;;;;;;5055600;28;20044;-80
2022/12/04 09:52:29;;;;;;;146.93;58.72;;;0.70;99.90;;;;;;5054396;28;20474;-80
2022/12/04 09:54:58;;;;;;;145.18;57.38;;;0.70;99.90;;;;;;5055144;28;20024;-79
2022/12/04 09:57:45;;;;;;;152.52;58.60;;;0.70;99.90;;;;;;5059645;28;20032;-80
2022/12/04 10:00:14;;;;;;;150.40;60.90;;;0.70;99.90;;;;;;5053371;28;20040;-80
2022/12/04 10:02:43;;;;;;;152.60;56.72;;;0.70;99.90;;;;;;5056145;28;20035;-80
2022/12/04 10:05:24;;;;;;;154.05;58.90;;;0.70;99.90;;;;;;5061166;28;20373;-81
2022/12/04 10:08:09;;;;;;;141.95;57.47;;;0.70;99.90;;;;;;5062766;28;20094;-81
2022/12/04 10:10:38;;;;;;;155.60;61.67;;;0.70;99.90;;;;;;5053562;28;20343;-80
2022/12/04 10:13:14;;;;;;;161.30;62.83;;;0.70;99.90;;;;;;5058660;28;20104;-81
2022/12/04 10:15:56;;;;;;;148.13;58.50;;;0.70;99.90;;;;;;5059123;28;20104;-80
2022/12/04 10:18:50;;;;;;;157.90;60.85;;;0.70;99.90;;;;;;5058546;28;20027;-81
2022/12/04 10:21:25;;;;;;;155.30;59.53;;;0.70;99.90;;;;;;5055839;28;20024;-80
2022/12/04 10:24:11;;;;;;;153.95;56.92;;;0.70;99.90;;;;;;5059227;28;20032;-81
2022/12/04 10:26:43;;;;;;;143.25;54.03;;;0.70;99.90;;;;;;5054131;28;20048;-81
2022/12/04 10:29:24;;;;;;;158.70;59.65;;;0.70;99.90;;;;;;5057775;28;20029;-81
2022/12/04 10:31:53;;;;;;;159.50;59.13;;;0.70;99.90;;;;;;5049121;28;20036;-81
2022/12/04 10:34:27;;;;;;;147.63;58.60;;;0.80;99.90;;;;;;5049786;28;20035;-80
2022/12/04 10:36:58;;;;;;;155.95;57.90;;;0.70;99.90;;;;;;5054709;28;20024;-81
2022/12/04 10:39:36;;;;;;;141.95;57.83;;;0.80;99.90;;;;;;5050882;28;20013;-80
2022/12/04 10:42:24;;;;;;;160.85;60.83;;;0.80;99.90;;;;;;5057623;28;20028;-81
2022/12/04 10:44:50;;;;;;;156.27;55.47;;;0.80;99.90;;;;;;5058081;28;20029;-80
2022/12/04 10:47:16;;;;;;;173.25;60.67;;;0.80;99.90;;;;;;5058725;28;20060;-81
2022/12/04 10:49:42;;;;;;;145.80;56.72;;;0.70;99.90;;;;;;5061814;28;20044;-80
2022/12/04 10:52:11;;;;;;;153.70;61.20;;;0.80;99.90;;;;;;5056151;28;20025;-81
2022/12/04 10:55:00;;;;;;;161.27;60.00;;;0.70;99.90;;;;;;5057726;28;20024;-80
2022/12/04 10:57:46;;;;;;;168.38;60.22;;;0.70;99.90;;;;;;5056821;28;20369;-80
2022/12/04 11:00:33;;;;;;;143.43;56.83;;;0.70;99.90;;;;;;5063242;28;20039;-80
2022/12/04 11:03:09;;;;;;;160.02;61.08;;;0.70;99.90;;;;;;5058114;28;20094;-80
2022/12/04 11:05:38;;;;;;;;;;;0.70;99.90;;;;;;5058676;28;20032;-80
2022/12/04 11:08:06;;;;;;;161.85;59.53;;;0.70;99.90;;;;;;5057534;28;19920;-80
2022/12/04 11:10:42;;;;;;;169.43;58.40;;;0.80;99.90;;;;;;5059384;28;20028;-81
2022/12/04 11:13:17;;;;;;;149.70;56.45;;;0.80;99.90;;;;;;5062170;28;20373;-80
2022/12/04 11:15:52;;;;;;;142.25;58.20;;;0.70;99.90;;;;;;5058650;28;20116;-80
2022/12/04 11:18:27;;;;;;;151.25;57.25;;;0.70;99.90;;;;;;5061546;28;20048;-80
2022/12/04 11:21:13;;;;;;;140.57;55.05;;;0.70;99.90;;;;;;5056686;28;20334;-80
2022/12/04 11:23:50;;;;;;;157.20;57.97;;;0.80;99.90;;;;;;5058794;28;20028;-80
2022/12/04 11:26:27;;;;;;;156.00;58.47;;;0.80;99.90;;;;;;5054146;28;20033;-80
2022/12/04 11:28:53;;;;;;;163.00;62.58;;;0.80;99.90;;;;;;5062409;28;20020;-80
2022/12/04 11:31:21;;;;;;;161.57;58.63;;;0.80;99.90;;;;;;5056443;28;20074;-80
2022/12/04 11:33:49;;;;;;;163.90;61.55;;;0.80;99.90;;;;;;5053813;28;20066;-81
2022/12/04 11:36:24;;;;;;;169.10;60.88;;;0.80;99.90;;;;;;5062814;28;20128;-81
2022/12/04 11:38:53;;;;;;;163.05;59.13;;;0.80;99.90;;;;;;5057675;28;20024;-80
2022/12/04 11:41:29;;;;;;;179.27;59.95;;;0.80;99.90;;;;;;5056629;28;20380;-81
2022/12/04 11:43:55;;;;;;;169.43;62.22;;;0.80;99.90;;;;;;5061325;28;20048;-81
2022/12/04 11:46:24;;;;;;;183.68;62.33;;;0.80;99.90;;;;;;5058327;28;20428;-80
2022/12/04 11:48:51;;;;;;;152.75;60.50;;;0.80;99.90;;;;;;5060433;28;20020;-81
2022/12/04 11:51:48;;;;;;;175.68;64.70;;;0.80;99.90;;;;;;5054005;28;20029;-81
2022/12/04 11:54:28;;;;;;;162.60;63.55;;;0.90;99.90;;;;;;5058614;28;20025;-81
2022/12/04 11:57:15;;;;;;;177.32;64.32;;;0.80;99.90;;;;;;5057159;28;20102;-80
2022/12/04 12:00:03;;;;;;;170.98;65.93;;;0.80;99.90;;;;;;5065397;28;20037;-80
2022/12/04 12:02:53;;;;;;;179.20;65.60;;;0.80;99.90;;;;;;5063705;28;20370;-81
2022/12/04 12:05:38;;;;;;;171.45;62.33;;;0.90;99.90;;;;;;5062864;28;20021;-80
2022/12/04 12:08:19;;;;;;;183.15;64.45;;;0.90;99.90;;;;;;5063287;28;20039;-81
2022/12/04 12:10:52;;;;;;;162.75;61.22;;;0.90;99.90;;;;;;5057062;28;20020;-80
2022/12/04 12:13:36;;;;;;;169.10;64.30;;;0.80;99.90;;;;;;5065948;28;20025;-81
2022/12/04 12:16:39;;;;;;;168.25;63.20;;;0.90;99.90;;;;;;5061082;28;20605;-81
2022/12/04 12:19:25;;;;;;;160.65;63.80;;;0.80;99.90;;;;;;5058410;28;20028;-81
2022/12/04 12:22:06;;;;;;;167.18;64.30;;;0.90;99.90;;;;;;5060399;28;20039;-81
2022/12/04 12:24:56;;;;;;;215.38;60.97;;;0.90;99.90;;;;;;5060044;28;20105;-80
2022/12/04 12:28:03;;;;;;;156.50;58.78;;;0.90;99.90;;;;;;5062528;28;20127;-81
2022/12/04 12:30:44;;;;;;;243.50;66.88;;;0.90;99.90;;;;;;5064555;28;20060;-81
2022/12/04 12:33:20;;;;;;;162.77;63.22;;;0.90;99.90;;;;;;5063152;28;20039;-81
2022/12/04 12:35:57;;;;;;;170.50;62.92;;;0.90;99.90;;;;;;5062680;28;20029;-81
2022/12/04 12:38:33;;;;;;;159.63;61.88;;;0.90;99.90;;;;;;5061604;28;20425;-81
2022/12/04 12:41:23;;;;;;;170.52;62.85;;;0.90;99.90;;;;;;5058389;28;20029;-81
2022/12/04 12:44:24;;;;;;;212.15;70.03;;;0.90;99.90;;;;;;5051850;28;20470;-81
2022/12/04 12:47:04;;;;;;;186.82;71.55;;;0.90;99.90;;;;;;5056458;28;20048;-81
2022/12/04 12:49:54;;;;;;;179.52;69.47;;;0.90;99.90;;;;;;5058472;28;20039;-81
2022/12/04 12:52:52;;;;;;;176.50;66.38;;;0.90;99.90;;;;;;5054417;28;20113;-81
2022/12/04 12:55:23;;;;;;;169.38;61.47;;;1.00;99.90;;;;;;5060280;28;20100;-81
2022/12/04 12:57:55;;;;;;;158.90;59.42;;;0.90;99.90;;;;;;5059285;28;20411;-81
2022/12/04 13:00:22;;;;;;;180.13;64.35;;;0.90;99.90;;;;;;5061167;28;20145;-81
2022/12/04 13:03:05;;;;;;;167.60;61.00;;;0.90;99.90;;;;;;5060020;28;20070;-81
2022/12/04 13:05:45;;;;;;;165.48;59.63;;;1.00;99.90;;;;;;5059453;28;20028;-81